Time;durP1;ratioP1;P1;durP2;ratioP2;P2;SDS_P1;SDS_P2;PMS_P1;PMS_P2;Temp;Humidity;BMP_temperature;BMP_pressure;BME280_temperature;BME280_humidity;BME280_pressure;Samples;Min_cycle;Max_cycle;Signal;HPM_P1;HPM_P2
2022/04/09 00:00:24;;;;;;;6.87;3.73;;;4.50;97.30;;;;;;4986161;28;20257;-79
2022/04/09 00:02:50;;;;;;;4.97;3.43;;;4.50;97.30;;;;;;4970085;28;20437;-80
2022/04/09 00:05:16;;;;;;;7.40;2.83;;;4.50;97.30;;;;;;4973774;28;20475;-82
2022/04/09 00:07:42;;;;;;;8.37;3.27;;;4.50;97.30;;;;;;4973886;28;20508;-80
2022/04/09 00:10:10;;;;;;;12.60;3.67;;;4.50;97.30;;;;;;4987873;28;20182;-79
2022/04/09 00:12:38;;;;;;;8.03;3.47;;;4.50;97.30;;;;;;4971473;28;20425;-82
2022/04/09 00:15:05;;;;;;;7.13;3.30;;;4.50;97.30;;;;;;4971145;28;20640;-80
2022/04/09 00:17:42;;;;;;;5.87;3.10;;;4.50;97.30;;;;;;4978098;28;20429;-79
2022/04/09 00:20:11;;;;;;;8.50;3.30;;;4.50;97.30;;;;;;4987546;28;20484;-79
2022/04/09 00:22:38;;;;;;;6.17;3.10;;;4.50;97.30;;;;;;4973036;28;20754;-80
2022/04/09 00:25:10;;;;;;;6.73;2.80;;;4.50;97.30;;;;;;4971807;28;20494;-79
2022/04/09 00:27:36;;;;;;;4.27;2.80;;;4.50;97.30;;;;;;4987179;28;20453;-79
2022/04/09 00:30:07;;;;;;;6.80;3.10;;;4.50;97.30;;;;;;4987104;28;20849;-80
2022/04/09 00:32:32;;;;;;;7.63;3.53;;;4.50;97.30;;;;;;4987349;28;20470;-79
2022/04/09 00:34:58;;;;;;;6.40;3.27;;;4.50;97.30;;;;;;4970798;28;20462;-80
2022/04/09 00:37:24;;;;;;;4.97;2.90;;;4.50;97.30;;;;;;4972510;28;20210;-79
2022/04/09 00:39:49;;;;;;;6.70;3.63;;;4.50;97.30;;;;;;4987769;28;20436;-79
2022/04/09 00:42:17;;;;;;;7.27;3.70;;;4.50;97.30;;;;;;4987514;28;20194;-80
2022/04/09 00:44:42;;;;;;;5.03;3.00;;;4.50;97.30;;;;;;4971138;28;20210;-80
2022/04/09 00:47:09;;;;;;;4.00;3.37;;;4.50;97.30;;;;;;4987578;28;20940;-79
2022/04/09 00:49:39;;;;;;;5.40;3.57;;;4.60;97.30;;;;;;4970992;28;20517;-79
2022/04/09 00:52:07;;;;;;;8.80;3.33;;;4.50;97.30;;;;;;4985580;28;20884;-80
2022/04/09 00:54:34;;;;;;;6.10;3.60;;;4.60;97.30;;;;;;4985755;28;20454;-79
2022/04/09 00:57:03;;;;;;;5.73;3.47;;;4.50;97.30;;;;;;4988325;28;20436;-79
2022/04/09 00:59:30;;;;;;;6.50;3.30;;;4.50;97.30;;;;;;4973365;28;20422;-79
2022/04/09 01:01:56;;;;;;;7.17;4.00;;;4.50;97.30;;;;;;4972500;28;20426;-79
2022/04/09 01:04:23;;;;;;;5.70;3.43;;;4.50;97.30;;;;;;4972104;28;20504;-79
2022/04/09 01:06:49;;;;;;;7.33;3.53;;;4.50;97.30;;;;;;4972070;28;20425;-78
2022/04/09 01:09:15;;;;;;;4.30;2.90;;;4.50;97.30;;;;;;4971979;28;20457;-79
2022/04/09 01:11:41;;;;;;;7.17;3.40;;;4.50;97.30;;;;;;4972624;28;20410;-78
2022/04/09 01:14:07;;;;;;;7.20;4.10;;;4.50;97.30;;;;;;4972192;28;20238;-79
2022/04/09 01:16:33;;;;;;;5.10;3.40;;;4.50;97.30;;;;;;4975691;28;20418;-79
2022/04/09 01:19:00;;;;;;;8.20;5.63;;;4.50;97.30;;;;;;4975922;28;20487;-79
2022/04/09 01:21:27;;;;;;;7.77;4.33;;;4.50;97.30;;;;;;4976851;28;20516;-79
2022/04/09 01:23:54;;;;;;;8.37;4.17;;;4.50;97.30;;;;;;5005327;28;20473;-79
2022/04/09 01:26:20;;;;;;;6.13;3.40;;;4.50;97.30;;;;;;4975038;28;20461;-78
2022/04/09 01:28:47;;;;;;;7.17;4.37;;;4.50;97.30;;;;;;4974489;28;20509;-78
2022/04/09 01:31:13;;;;;;;6.77;4.33;;;4.60;97.30;;;;;;4974539;28;20270;-78
2022/04/09 01:33:38;;;;;;;8.97;4.20;;;4.60;97.30;;;;;;4976115;28;20883;-78
2022/04/09 01:36:05;;;;;;;11.27;4.50;;;4.60;97.30;;;;;;4974344;28;20442;-78
2022/04/09 01:38:31;;;;;;;10.30;4.80;;;4.70;97.30;;;;;;4975644;28;20641;-78
2022/04/09 01:40:56;;;;;;;10.60;5.37;;;4.70;97.30;;;;;;4975583;28;20449;-79
2022/04/09 01:43:22;;;;;;;6.77;3.90;;;4.70;97.30;;;;;;4976827;28;20430;-78
2022/04/09 01:45:48;;;;;;;9.27;4.73;;;4.70;97.30;;;;;;4975357;28;20229;-78
2022/04/09 01:48:14;;;;;;;8.63;4.60;;;4.70;97.30;;;;;;4977429;28;20509;-78
2022/04/09 01:50:40;;;;;;;10.87;5.00;;;4.70;97.30;;;;;;4974609;28;20206;-78
2022/04/09 01:53:06;;;;;;;15.53;5.87;;;4.70;97.30;;;;;;4975585;28;20179;-79
2022/04/09 01:55:32;;;;;;;14.77;5.50;;;4.70;97.30;;;;;;4976310;28;20197;-79
2022/04/09 01:57:58;;;;;;;11.37;5.60;;;4.80;97.30;;;;;;4966433;28;20434;-79
2022/04/09 02:00:24;;;;;;;9.80;5.20;;;4.80;97.30;;;;;;4988283;28;20485;-79
2022/04/09 02:02:51;;;;;;;9.50;5.30;;;4.80;97.30;;;;;;4958623;28;20649;-79
2022/04/09 02:05:18;;;;;;;9.57;5.63;;;4.80;97.30;;;;;;4974351;28;20477;-79
2022/04/09 02:07:45;;;;;;;13.10;6.63;;;4.80;97.30;;;;;;4975193;28;20817;-80
2022/04/09 02:10:11;;;;;;;13.23;5.37;;;4.80;97.30;;;;;;4973548;28;20513;-77
2022/04/09 02:12:38;;;;;;;8.47;5.30;;;4.80;97.30;;;;;;4971986;28;20418;-77
2022/04/09 02:15:09;;;;;;;9.10;4.57;;;4.80;97.30;;;;;;4971612;28;20460;-76
2022/04/09 02:17:36;;;;;;;13.70;4.50;;;4.80;97.30;;;;;;4973174;28;20521;-77
2022/04/09 02:20:03;;;;;;;8.43;4.73;;;4.80;97.30;;;;;;4972999;28;20418;-78
2022/04/09 02:22:40;;;;;;;6.93;3.77;;;4.80;97.30;;;;;;4972694;28;20948;-77
2022/04/09 02:25:09;;;;;;;10.43;4.40;;;4.70;97.30;;;;;;4971486;28;20465;-77
2022/04/09 02:27:34;;;;;;;7.50;3.77;;;4.70;97.30;;;;;;4972113;28;20453;-78
2022/04/09 02:30:01;;;;;;;9.93;4.00;;;4.70;97.30;;;;;;4971117;28;20484;-79
2022/04/09 02:32:27;;;;;;;17.70;4.00;;;4.70;97.30;;;;;;4971772;28;20193;-79
2022/04/09 02:34:53;;;;;;;6.80;3.33;;;4.70;97.30;;;;;;4972645;28;20454;-78
2022/04/09 02:37:20;;;;;;;8.30;3.60;;;4.70;97.30;;;;;;4972330;28;20222;-78
2022/04/09 02:39:45;;;;;;;10.50;3.90;;;4.70;97.30;;;;;;4971199;28;20440;-78
2022/04/09 02:42:12;;;;;;;5.53;3.00;;;4.70;97.30;;;;;;4971059;28;20425;-78
2022/04/09 02:44:38;;;;;;;7.23;3.50;;;4.60;97.30;;;;;;4972484;28;20480;-77
2022/04/09 02:47:04;;;;;;;3.80;2.60;;;4.60;97.30;;;;;;4987463;28;20458;-78
2022/04/09 02:49:29;;;;;;;7.37;4.07;;;4.60;97.30;;;;;;4986995;28;20430;-77
2022/04/09 02:51:55;;;;;;;8.03;3.40;;;4.60;97.30;;;;;;4970950;28;20182;-77
2022/04/09 02:54:20;;;;;;;8.20;3.67;;;4.60;97.30;;;;;;4971819;28;20257;-77
2022/04/09 02:56:49;;;;;;;6.47;3.40;;;4.60;97.30;;;;;;4972109;28;20230;-76
2022/04/09 02:59:15;;;;;;;9.10;3.70;;;4.60;97.30;;;;;;4987271;28;20269;-77
2022/04/09 03:01:42;;;;;;;8.93;3.30;;;4.50;97.30;;;;;;4972167;28;20434;-76
2022/04/09 03:04:08;;;;;;;8.53;3.37;;;4.50;97.30;;;;;;4979022;28;20445;-77
2022/04/09 03:06:33;;;;;;;14.00;4.83;;;4.50;97.30;;;;;;4979689;28;20776;-77
2022/04/09 03:08:59;;;;;;;18.40;3.53;;;4.50;97.30;;;;;;4970776;28;20429;-76
2022/04/09 03:11:25;;;;;;;12.23;4.27;;;4.50;97.30;;;;;;4972328;28;20239;-78
2022/04/09 03:13:50;;;;;;;10.30;3.77;;;4.50;97.30;;;;;;4970713;28;20548;-77
2022/04/09 03:16:16;;;;;;;7.23;2.93;;;4.50;97.30;;;;;;4970643;28;20187;-77
2022/04/09 03:18:41;;;;;;;6.37;3.20;;;4.50;97.30;;;;;;4970485;28;20201;-76
2022/04/09 03:21:07;;;;;;;6.90;3.77;;;4.50;97.30;;;;;;4986870;28;20266;-76
2022/04/09 03:23:33;;;;;;;5.83;3.13;;;4.50;97.30;;;;;;4983721;28;20206;-76
2022/04/09 03:25:58;;;;;;;9.53;3.30;;;4.60;97.30;;;;;;4970257;28;20203;-77
2022/04/09 03:28:24;;;;;;;5.20;3.43;;;4.60;97.30;;;;;;4970245;28;20193;-77
2022/04/09 03:30:50;;;;;;;15.23;3.80;;;4.70;97.30;;;;;;4987734;28;20179;-78
2022/04/09 03:33:16;;;;;;;5.80;3.40;;;4.70;97.30;;;;;;4986837;28;20668;-78
2022/04/09 03:35:41;;;;;;;13.13;3.90;;;4.80;97.30;;;;;;4971029;28;20187;-78
2022/04/09 03:38:11;;;;;;;9.77;3.50;;;4.80;97.30;;;;;;4969448;28;21021;-78
2022/04/09 03:40:37;;;;;;;29.53;3.53;;;4.80;97.30;;;;;;4970189;28;20188;-78
2022/04/09 03:43:03;;;;;;;7.37;3.77;;;4.80;97.30;;;;;;4972667;28;20441;-79
2022/04/09 03:45:29;;;;;;;6.57;3.13;;;4.80;97.30;;;;;;4986769;28;20508;-78
2022/04/09 03:47:54;;;;;;;17.73;5.63;;;4.90;97.30;;;;;;4986473;28;20186;-80
2022/04/09 03:50:20;;;;;;;3.93;2.90;;;4.90;97.30;;;;;;4970704;28;20185;-78
2022/04/09 03:52:46;;;;;;;8.40;3.77;;;5.00;97.30;;;;;;4970418;28;20183;-78
2022/04/09 03:55:13;;;;;;;13.27;3.53;;;5.00;97.30;;;;;;4986389;28;20955;-78
2022/04/09 03:57:38;;;;;;;8.50;3.97;;;5.00;97.30;;;;;;4987578;28;20182;-78
2022/04/09 04:00:05;;;;;;;11.73;3.67;;;5.00;97.30;;;;;;4971771;28;20465;-78
2022/04/09 04:02:30;;;;;;;5.60;2.77;;;5.00;97.30;;;;;;4971092;28;20221;-78
2022/04/09 04:05:01;;;;;;;7.20;3.03;;;5.00;97.30;;;;;;5001594;28;20540;-78
2022/04/09 04:07:27;;;;;;;7.63;3.50;;;5.00;97.30;;;;;;4974646;28;20242;-78
2022/04/09 04:09:52;;;;;;;9.17;5.10;;;5.10;97.30;;;;;;4986795;28;20843;-78
2022/04/09 04:12:18;;;;;;;7.03;3.10;;;5.10;97.30;;;;;;4972329;28;20273;-78
2022/04/09 04:14:44;;;;;;;9.63;3.27;;;5.10;97.30;;;;;;4969977;28;20217;-78
2022/04/09 04:17:10;;;;;;;6.57;2.83;;;5.10;97.30;;;;;;4972204;28;20419;-80
2022/04/09 04:19:36;;;;;;;4.50;2.70;;;5.10;97.30;;;;;;4970638;28;20456;-79
2022/04/09 04:22:02;;;;;;;9.97;4.23;;;5.10;97.30;;;;;;4971041;28;20174;-78
2022/04/09 04:24:28;;;;;;;7.30;3.03;;;5.10;97.30;;;;;;4990409;28;20444;-78
2022/04/09 04:26:54;;;;;;;3.50;2.60;;;5.10;97.30;;;;;;4988118;28;20421;-78
2022/04/09 04:29:19;;;;;;;5.40;2.60;;;5.00;97.30;;;;;;4987258;28;20175;-78
2022/04/09 04:31:45;;;;;;;4.93;2.43;;;5.00;97.30;;;;;;4983835;28;20183;-79
2022/04/09 04:34:10;;;;;;;5.77;3.23;;;5.00;97.30;;;;;;4966118;28;20195;-79
2022/04/09 04:36:36;;;;;;;10.43;3.27;;;5.00;97.30;;;;;;4983260;28;20221;-79
2022/04/09 04:39:02;;;;;;;8.50;2.77;;;5.00;97.30;;;;;;4967627;28;20186;-78
2022/04/09 04:41:28;;;;;;;9.13;2.90;;;5.00;97.30;;;;;;4964547;28;20197;-79
2022/04/09 04:43:54;;;;;;;5.90;2.97;;;5.00;97.30;;;;;;4981307;28;20991;-78
2022/04/09 04:46:20;;;;;;;13.13;3.27;;;5.00;97.30;;;;;;4967503;28;20365;-77
2022/04/09 04:48:46;;;;;;;8.23;3.20;;;5.00;97.30;;;;;;4969952;28;20514;-78
2022/04/09 04:51:12;;;;;;;12.33;2.93;;;5.00;97.30;;;;;;4970820;28;20195;-78
2022/04/09 04:53:38;;;;;;;7.20;2.50;;;5.00;97.30;;;;;;4972117;28;20854;-78
2022/04/09 04:56:03;;;;;;;4.80;2.20;;;5.10;97.30;;;;;;4973332;28;20256;-78
2022/04/09 04:58:29;;;;;;;9.17;2.47;;;5.10;97.30;;;;;;4974454;28;20269;-78
2022/04/09 05:00:55;;;;;;;20.50;3.00;;;5.10;97.30;;;;;;4976859;28;20190;-78
2022/04/09 05:03:21;;;;;;;5.60;2.27;;;5.10;97.30;;;;;;4984570;28;20426;-77
2022/04/09 05:05:47;;;;;;;4.43;2.37;;;5.10;97.30;;;;;;4967505;28;20198;-78
2022/04/09 05:08:13;;;;;;;6.13;3.00;;;5.10;97.30;;;;;;4973310;28;20190;-77
2022/04/09 05:10:39;;;;;;;8.10;2.90;;;5.10;97.30;;;;;;4954476;28;20937;-76
2022/04/09 05:13:04;;;;;;;3.97;2.67;;;5.10;97.30;;;;;;4955653;29;20912;-77
2022/04/09 05:15:30;;;;;;;6.87;2.70;;;5.10;97.30;;;;;;4954026;29;20206;-76
2022/04/09 05:17:56;;;;;;;8.90;3.20;;;5.20;97.30;;;;;;4954064;28;20552;-76
2022/04/09 05:20:22;;;;;;;10.63;2.83;;;5.20;97.30;;;;;;4981604;28;20183;-76
2022/04/09 05:22:47;;;;;;;10.97;3.50;;;5.20;97.30;;;;;;4970533;28;20501;-77
2022/04/09 05:25:16;;;;;;;6.33;2.73;;;5.30;97.30;;;;;;4981905;28;20214;-76
2022/04/09 05:27:43;;;;;;;6.87;2.50;;;5.30;97.30;;;;;;4982202;28;20527;-76
2022/04/09 05:30:09;;;;;;;5.90;2.07;;;5.30;97.30;;;;;;4985289;28;20532;-77
2022/04/09 05:32:36;;;;;;;9.43;3.13;;;5.30;97.30;;;;;;4963044;28;20944;-77
2022/04/09 05:35:06;;;;;;;4.40;2.43;;;5.30;97.30;;;;;;4982986;28;20549;-77
2022/04/09 05:37:31;;;;;;;9.37;2.27;;;5.30;97.30;;;;;;4971333;28;21011;-77
2022/04/09 05:39:58;;;;;;;4.83;2.40;;;5.30;97.30;;;;;;4978939;28;20438;-78
2022/04/09 05:42:25;;;;;;;9.80;2.70;;;5.30;97.30;;;;;;4976985;28;20697;-78
2022/04/09 05:44:52;;;;;;;6.17;2.70;;;5.30;97.30;;;;;;4987787;28;20470;-77
2022/04/09 05:47:18;;;;;;;6.20;3.40;;;5.30;97.30;;;;;;4970390;28;20958;-78
2022/04/09 05:49:44;;;;;;;6.70;3.53;;;5.20;97.30;;;;;;4971864;28;20942;-78
2022/04/09 05:52:09;;;;;;;11.63;4.00;;;5.30;97.30;;;;;;4980036;28;20426;-77
2022/04/09 05:54:35;;;;;;;14.80;4.20;;;5.30;97.30;;;;;;4969989;28;20203;-78
2022/04/09 05:57:01;;;;;;;10.60;3.50;;;5.40;97.30;;;;;;4968827;28;20666;-77
2022/04/09 05:59:27;;;;;;;9.23;3.87;;;5.40;97.30;;;;;;4984967;28;20741;-77
2022/04/09 06:01:53;;;;;;;7.73;3.93;;;5.40;97.30;;;;;;4971141;28;20422;-78
2022/04/09 06:04:20;;;;;;;17.03;3.93;;;5.40;97.30;;;;;;4970372;28;20195;-78
2022/04/09 06:06:46;;;;;;;6.20;3.90;;;5.40;97.30;;;;;;4970357;28;20211;-79
2022/04/09 06:09:12;;;;;;;8.17;4.30;;;5.20;97.30;;;;;;4961143;28;20956;-78
2022/04/09 06:11:38;;;;;;;11.30;5.30;;;5.10;97.30;;;;;;4967770;28;20426;-78
2022/04/09 06:14:04;;;;;;;12.73;5.10;;;5.00;97.30;;;;;;4981786;28;20452;-79
2022/04/09 06:16:34;;;;;;;9.50;5.40;;;4.90;97.30;;;;;;4972986;28;20465;-78
2022/04/09 06:19:00;;;;;;;11.83;5.10;;;4.90;97.30;;;;;;4972091;28;20826;-78
2022/04/09 06:21:29;;;;;;;13.10;5.70;;;4.90;97.30;;;;;;4971021;28;20444;-78
2022/04/09 06:23:56;;;;;;;18.30;5.73;;;4.90;97.30;;;;;;4980486;28;20206;-78
2022/04/09 06:26:21;;;;;;;12.07;5.80;;;4.90;97.30;;;;;;4969023;28;20564;-78
2022/04/09 06:28:47;;;;;;;15.80;5.80;;;5.00;97.30;;;;;;4965408;28;20489;-79
2022/04/09 06:31:13;;;;;;;12.53;5.10;;;5.00;97.30;;;;;;4974264;28;20187;-78
2022/04/09 06:33:39;;;;;;;8.93;5.60;;;5.10;97.30;;;;;;4963867;28;20368;-78
2022/04/09 06:36:05;;;;;;;6.27;4.40;;;5.00;97.30;;;;;;4980225;28;20531;-78
2022/04/09 06:38:33;;;;;;;8.10;4.60;;;5.10;97.30;;;;;;4994344;28;20194;-80
2022/04/09 06:40:58;;;;;;;6.63;4.30;;;5.10;97.30;;;;;;4973873;28;20947;-78
2022/04/09 06:43:26;;;;;;;17.90;6.23;;;5.20;97.30;;;;;;4971922;28;20429;-79
2022/04/09 06:45:52;;;;;;;12.07;5.10;;;5.20;97.30;;;;;;4978675;28;20206;-78
2022/04/09 06:48:17;;;;;;;10.57;4.47;;;5.30;97.30;;;;;;4972533;28;20984;-79
2022/04/09 06:50:43;;;;;;;10.87;4.03;;;5.30;97.30;;;;;;4974478;28;20210;-78
2022/04/09 06:53:09;;;;;;;11.13;4.47;;;5.30;97.30;;;;;;4982274;28;20191;-78
2022/04/09 06:55:35;;;;;;;7.83;3.93;;;5.40;97.30;;;;;;4975024;28;20233;-78
2022/04/09 06:58:02;;;;;;;9.40;4.97;;;5.40;97.30;;;;;;4969017;28;20272;-78
2022/04/09 07:00:28;;;;;;;17.23;4.10;;;5.40;97.30;;;;;;4991413;28;20434;-78
2022/04/09 07:02:53;;;;;;;8.57;3.73;;;5.40;97.30;;;;;;4982687;28;20486;-78
2022/04/09 07:05:19;;;;;;;5.00;3.67;;;5.40;97.30;;;;;;4971513;28;20221;-78
2022/04/09 07:07:48;;;;;;;6.20;3.70;;;5.40;97.30;;;;;;4966601;28;20186;-79
2022/04/09 07:10:15;;;;;;;8.47;3.23;;;5.40;97.30;;;;;;4982602;28;21346;-79
2022/04/09 07:12:41;;;;;;;12.20;3.60;;;5.50;97.30;;;;;;4966074;28;20462;-78
2022/04/09 07:15:07;;;;;;;14.20;3.30;;;5.60;97.30;;;;;;4965170;28;20528;-78
2022/04/09 07:17:33;;;;;;;7.23;2.93;;;5.90;97.30;;;;;;4979502;28;20541;-78
2022/04/09 07:20:03;;;;;;;8.50;2.60;;;6.10;97.30;;;;;;4975476;28;20430;-78
2022/04/09 07:22:28;;;;;;;3.27;2.37;;;6.40;97.30;;;;;;4968717;28;20274;-78
2022/04/09 07:24:55;;;;;;;7.23;2.83;;;6.50;97.30;;;;;;4987455;28;20621;-78
2022/04/09 07:27:21;;;;;;;14.47;3.47;;;6.50;97.30;;;;;;4981654;28;20186;-78
2022/04/09 07:29:47;;;;;;;4.43;2.47;;;6.70;97.30;;;;;;4976496;28;20426;-78
2022/04/09 07:32:13;;;;;;;16.53;2.33;;;6.90;97.30;;;;;;4987922;28;20270;-78
2022/04/09 07:34:39;;;;;;;6.83;2.43;;;7.10;97.30;;;;;;4971887;28;20532;-78
2022/04/09 07:37:05;;;;;;;9.17;2.83;;;7.30;97.30;;;;;;4981106;28;20225;-78
2022/04/09 07:39:30;;;;;;;4.13;2.40;;;7.50;97.30;;;;;;4976360;28;20181;-78
2022/04/09 07:41:56;;;;;;;6.60;2.53;;;7.50;97.30;;;;;;4972994;28;20841;-79
2022/04/09 07:44:23;;;;;;;6.80;3.03;;;7.40;97.30;;;;;;4967968;28;20242;-79
2022/04/09 07:46:49;;;;;;;7.00;2.20;;;7.30;96.60;;;;;;4982709;28;20910;-77
2022/04/09 07:49:15;;;;;;;3.93;2.10;;;7.10;96.00;;;;;;4992201;28;20471;-79
2022/04/09 07:51:42;;;;;;;5.43;2.27;;;6.90;96.20;;;;;;4991983;28;20515;-79
2022/04/09 07:54:08;;;;;;;4.73;2.87;;;6.90;96.10;;;;;;4991240;28;20209;-80
2022/04/09 07:56:34;;;;;;;5.80;2.13;;;7.00;96.30;;;;;;4972560;28;20423;-79
2022/04/09 07:59:00;;;;;;;2.53;1.83;;;7.10;96.00;;;;;;4966006;28;20433;-80
2022/04/09 08:01:26;;;;;;;3.33;1.73;;;7.30;94.80;;;;;;4972668;28;20434;-80
2022/04/09 08:03:51;;;;;;;5.47;1.93;;;7.40;93.70;;;;;;4975037;28;20206;-81
2022/04/09 08:06:17;;;;;;;5.63;2.03;;;7.40;93.40;;;;;;4969687;28;20202;-80
2022/04/09 08:08:42;;;;;;;4.70;1.87;;;7.30;93.00;;;;;;4960392;28;20179;-79
2022/04/09 08:11:10;;;;;;;2.53;1.90;;;7.30;94.10;;;;;;4970612;28;20170;-79
2022/04/09 08:13:36;;;;;;;5.33;2.17;;;7.30;94.50;;;;;;4971101;28;20215;-78
2022/04/09 08:16:02;;;;;;;2.27;1.70;;;7.40;94.10;;;;;;4975944;28;20769;-79
2022/04/09 08:18:27;;;;;;;9.77;2.43;;;7.30;93.60;;;;;;4971911;28;20186;-78
2022/04/09 08:20:53;;;;;;;5.43;1.97;;;7.30;93.60;;;;;;4973935;28;20449;-77
2022/04/09 08:23:19;;;;;;;5.07;1.90;;;7.40;93.80;;;;;;4971819;28;20187;-78
2022/04/09 08:25:44;;;;;;;6.80;2.20;;;7.60;93.50;;;;;;4988184;28;20276;-79
2022/04/09 08:28:10;;;;;;;3.63;1.70;;;7.60;92.80;;;;;;4971612;28;20269;-77
2022/04/09 08:30:36;;;;;;;3.23;2.13;;;7.50;92.70;;;;;;4972747;28;20177;-77
2022/04/09 08:33:05;;;;;;;3.87;1.57;;;7.40;91.60;;;;;;4985535;28;20708;-79
2022/04/09 08:35:31;;;;;;;6.27;1.73;;;7.70;92.50;;;;;;4970705;28;20429;-78
2022/04/09 08:37:57;;;;;;;2.10;1.80;;;7.90;92.80;;;;;;4977815;28;20464;-79
2022/04/09 08:40:24;;;;;;;2.27;2.07;;;8.00;91.80;;;;;;4979660;28;20174;-78
2022/04/09 08:42:50;;;;;;;2.37;1.70;;;7.90;91.30;;;;;;4971187;28;20433;-76
2022/04/09 08:45:16;;;;;;;3.53;1.80;;;7.70;92.20;;;;;;4985737;28;20800;-79
2022/04/09 08:47:43;;;;;;;5.00;1.83;;;7.50;92.30;;;;;;4969580;28;20225;-79
2022/04/09 08:50:14;;;;;;;4.33;1.97;;;7.50;92.70;;;;;;4962674;28;20849;-78
2022/04/09 08:52:41;;;;;;;10.73;2.13;;;7.60;92.70;;;;;;4980530;28;20799;-79
2022/04/09 08:55:09;;;;;;;6.03;2.00;;;7.70;92.20;;;;;;4975366;28;20855;-78
2022/04/09 08:57:35;;;;;;;4.57;1.97;;;7.90;93.00;;;;;;4972578;28;21145;-79
2022/04/09 09:00:17;;;;;;;5.97;2.03;;;8.10;91.70;;;;;;4968789;28;20436;-78
2022/04/09 09:02:54;;;;;;;3.93;1.70;;;8.30;90.90;;;;;;4978761;28;21013;-79
2022/04/09 09:05:38;;;;;;;5.07;1.80;;;8.30;89.80;;;;;;4960514;28;20473;-78
2022/04/09 09:08:05;;;;;;;2.47;1.60;;;8.30;89.30;;;;;;4966946;28;20416;-79
2022/04/09 09:10:31;;;;;;;6.63;1.80;;;8.20;89.50;;;;;;4980930;28;20438;-78
2022/04/09 09:13:05;;;;;;;5.53;1.77;;;8.20;89.40;;;;;;4973088;28;20418;-79
2022/04/09 09:15:48;;;;;;;4.80;1.60;;;8.10;89.40;;;;;;4984048;28;20418;-85
2022/04/09 09:18:25;;;;;;;2.10;1.40;;;8.10;89.90;;;;;;4968342;28;20434;-84
2022/04/09 09:20:53;;;;;;;6.20;2.50;;;8.00;89.30;;;;;;4977020;28;20821;-84
2022/04/09 09:23:20;;;;;;;3.70;2.23;;;7.70;91.90;;;;;;4973324;28;20434;-85
2022/04/09 09:25:51;;;;;;;4.23;1.90;;;7.40;95.00;;;;;;4967080;28;20462;-87
2022/04/09 09:28:26;;;;;;;3.50;2.20;;;7.30;96.80;;;;;;4968025;28;20545;-83
2022/04/09 09:30:53;;;;;;;2.77;2.27;;;7.40;97.30;;;;;;4969538;28;20479;-82
2022/04/09 09:33:18;;;;;;;3.60;2.00;;;7.60;97.30;;;;;;4975461;28;20452;-83
2022/04/09 09:35:55;;;;;;;3.10;1.97;;;7.70;97.30;;;;;;4976567;28;20465;-86
2022/04/09 09:38:47;;;;;;;2.87;1.93;;;8.00;97.30;;;;;;4993841;23;20311;-83
2022/04/09 09:41:25;;;;;;;5.47;2.03;;;8.20;95.60;;;;;;4978854;28;20458;-85
2022/04/09 09:44:04;;;;;;;4.23;1.80;;;8.40;94.60;;;;;;4980597;28;20467;-83
2022/04/09 09:46:30;;;;;;;3.60;1.93;;;8.60;94.50;;;;;;4969239;28;20482;-83
2022/04/09 09:48:56;;;;;;;7.53;2.13;;;8.70;92.60;;;;;;4972329;28;20788;-83
2022/04/09 09:51:25;;;;;;;7.33;2.10;;;8.80;91.20;;;;;;4942049;28;20829;-84
2022/04/09 09:54:08;;;;;;;5.20;1.63;;;9.10;92.10;;;;;;4938937;29;20179;-85
2022/04/09 09:56:35;;;;;;;2.07;1.30;;;9.10;89.40;;;;;;4936370;29;20957;-83
2022/04/09 09:59:05;;;;;;;2.90;1.93;;;8.90;88.10;;;;;;4936559;29;20976;-84
2022/04/09 10:01:31;;;;;;;5.57;1.73;;;8.60;88.90;;;;;;4952942;28;20875;-83
2022/04/09 10:03:58;;;;;;;1.70;1.70;;;8.40;88.30;;;;;;4936935;28;20423;-84
2022/04/09 10:06:23;;;;;;;6.03;2.27;;;8.30;88.70;;;;;;4937022;29;20467;-84
2022/04/09 10:08:49;;;;;;;2.23;1.73;;;8.00;89.90;;;;;;4935918;28;20447;-84
2022/04/09 10:11:17;;;;;;;3.17;2.10;;;7.80;91.40;;;;;;4935469;28;20191;-83
2022/04/09 10:13:44;;;;;;;2.63;1.53;;;8.10;92.30;;;;;;4935753;29;20180;-84
2022/04/09 10:16:11;;;;;;;1.80;1.67;;;8.60;91.80;;;;;;4935066;29;20434;-84
2022/04/09 10:23:47;;;;;;;2.40;1.70;;;9.50;89.80;;;;;;5010549;28;20492;-78
2022/04/09 10:26:13;;;;;;;3.00;1.73;;;9.70;88.80;;;;;;4994682;28;20514;-76
2022/04/09 10:28:41;;;;;;;2.73;2.03;;;10.00;88.50;;;;;;4994981;28;20439;-75
2022/04/09 10:31:24;;;;;;;4.10;1.70;;;10.10;86.90;;;;;;5013044;28;20427;-76
2022/04/09 10:33:57;;;;;;;2.40;1.50;;;10.10;86.60;;;;;;5014641;28;20428;-79
2022/04/09 10:36:43;;;;;;;2.20;1.53;;;9.80;85.30;;;;;;4995149;28;20949;-79
2022/04/09 10:39:21;;;;;;;4.27;1.97;;;8.90;91.70;;;;;;4997173;28;20420;-82
2022/04/09 10:41:48;;;;;;;2.40;1.73;;;8.00;95.20;;;;;;5011194;28;20450;-82
2022/04/09 11:07:05;;;;;;;4.50;1.90;;;8.70;95.40;;;;;;5021957;28;20472;-79
2022/04/09 11:09:42;;;;;;;3.27;2.30;;;8.70;95.10;;;;;;4989511;28;20423;-80
2022/04/09 11:12:09;;;;;;;2.50;1.70;;;8.60;94.80;;;;;;5015726;28;21002;-80
2022/04/09 11:15:00;;;;;;;2.70;2.00;;;8.60;94.00;;;;;;5020909;28;20709;-80
2022/04/09 11:17:31;;;;;;;4.53;1.80;;;8.40;93.60;;;;;;4997624;28;20412;-81
2022/04/09 11:20:03;;;;;;;2.90;2.20;;;8.30;92.90;;;;;;4995568;28;20879;-81
2022/04/09 11:22:56;;;;;;;2.30;1.80;;;8.30;92.80;;;;;;4997354;28;20464;-81
2022/04/09 11:25:23;;;;;;;3.20;2.10;;;8.30;92.30;;;;;;4994852;28;20461;-82
2022/04/09 11:27:49;;;;;;;7.90;1.67;;;8.40;91.90;;;;;;4998577;28;20532;-82
2022/04/09 11:30:15;;;;;;;4.03;1.83;;;8.40;92.10;;;;;;4995208;28;20448;-81
2022/04/09 11:32:41;;;;;;;5.30;1.60;;;8.50;89.40;;;;;;4995602;28;20432;-82
2022/04/09 11:35:11;;;;;;;3.00;1.97;;;8.50;88.90;;;;;;4995459;28;20477;-81
2022/04/09 11:37:42;;;;;;;2.53;1.60;;;8.70;88.20;;;;;;4996728;28;20421;-82
2022/04/09 11:40:09;;;;;;;2.07;1.67;;;8.90;88.00;;;;;;4998980;28;20425;-80
2022/04/09 11:43:01;;;;;;;2.07;1.70;;;9.10;88.00;;;;;;4997237;28;20412;-82
2022/04/09 11:45:31;;;;;;;2.67;1.40;;;9.50;87.30;;;;;;4991873;28;20810;-82
2022/04/09 11:48:00;;;;;;;4.90;2.30;;;9.70;87.30;;;;;;4997413;28;20421;-81
2022/04/09 11:50:32;;;;;;;2.30;1.30;;;9.90;86.50;;;;;;5011210;28;20527;-81
2022/04/09 11:53:12;;;;;;;5.47;1.40;;;10.00;85.00;;;;;;4993087;28;20440;-80
2022/04/09 11:55:39;;;;;;;1.47;1.30;;;10.00;79.90;;;;;;4998604;28;20432;-81
2022/04/09 11:58:05;;;;;;;1.90;1.40;;;10.20;78.90;;;;;;4995000;28;20709;-81
2022/04/09 12:00:36;;;;;;;2.20;1.10;;;10.40;78.50;;;;;;4987102;28;20484;-83
2022/04/09 12:03:06;;;;;;;3.30;1.67;;;10.60;79.30;;;;;;4997012;28;20426;-80
2022/04/09 12:05:46;;;;;;;3.27;1.40;;;10.60;77.20;;;;;;5008706;28;20457;-82
2022/04/09 12:08:13;;;;;;;2.93;1.47;;;10.60;77.60;;;;;;5003985;28;20404;-80
2022/04/09 12:10:58;;;;;;;2.00;1.27;;;10.40;76.50;;;;;;5000519;28;20487;-80
2022/04/09 12:13:28;;;;;;;1.57;1.47;;;10.40;78.20;;;;;;4996626;28;20475;-82
2022/04/09 12:15:55;;;;;;;7.47;2.13;;;10.50;79.40;;;;;;4987995;28;20425;-81
2022/04/09 12:18:27;;;;;;;3.87;1.73;;;10.40;80.50;;;;;;4995014;28;20422;-82
2022/04/09 12:20:52;;;;;;;3.83;2.10;;;10.10;81.70;;;;;;4991735;28;21009;-82
2022/04/09 12:23:31;;;;;;;3.03;1.53;;;9.90;82.20;;;;;;4995796;28;20473;-81
2022/04/09 12:25:58;;;;;;;1.93;1.30;;;9.80;83.10;;;;;;5003419;28;20202;-80
2022/04/09 12:28:28;;;;;;;2.50;1.63;;;9.80;83.50;;;;;;4986647;28;20424;-81
2022/04/09 12:30:56;;;;;;;4.60;1.70;;;9.90;83.20;;;;;;4995820;28;20503;-79
2022/04/09 12:33:23;;;;;;;4.57;1.60;;;9.70;83.30;;;;;;4979430;28;20413;-79
2022/04/09 12:35:49;;;;;;;6.00;2.20;;;9.70;84.20;;;;;;4995029;28;20423;-80
2022/04/09 12:38:41;;;;;;;4.57;1.93;;;10.10;83.80;;;;;;4988951;28;20501;-79
2022/04/09 12:41:07;;;;;;;2.67;1.33;;;10.70;83.30;;;;;;4985591;28;20433;-81
2022/04/09 12:43:40;;;;;;;3.87;1.50;;;10.80;83.00;;;;;;4999410;28;20444;-79
2022/04/09 12:46:13;;;;;;;1.47;1.23;;;11.00;81.10;;;;;;4984254;28;21072;-78
2022/04/09 12:48:46;;;;;;;5.30;1.20;;;11.20;79.70;;;;;;4981025;28;20464;-80
2022/04/09 12:51:14;;;;;;;1.73;1.07;;;11.50;77.50;;;;;;4990485;28;20431;-79
2022/04/09 12:53:42;;;;;;;5.43;1.30;;;11.60;76.90;;;;;;4977448;28;20809;-81
2022/04/09 12:56:10;;;;;;;1.27;1.00;;;11.80;76.30;;;;;;5002964;28;20413;-81
2022/04/09 12:58:36;;;;;;;3.07;1.43;;;12.10;77.10;;;;;;5011761;28;20823;-81
2022/04/09 13:01:04;;;;;;;1.10;1.07;;;12.20;74.40;;;;;;5010823;28;20420;-81
2022/04/09 13:03:30;;;;;;;1.33;1.00;;;12.30;74.20;;;;;;4993790;28;20440;-84
2022/04/09 13:05:55;;;;;;;2.53;1.37;;;12.40;73.00;;;;;;4990484;28;20463;-84
2022/04/09 13:08:22;;;;;;;1.30;1.07;;;12.50;73.50;;;;;;4992330;28;20185;-83
2022/04/09 13:10:48;;;;;;;4.30;1.50;;;12.60;75.10;;;;;;4984326;28;20519;-83
2022/04/09 13:13:14;;;;;;;2.53;1.30;;;12.80;74.30;;;;;;5000520;28;20462;-81
2022/04/09 13:15:40;;;;;;;8.83;2.43;;;13.10;74.20;;;;;;5001506;28;20416;-81
2022/04/09 13:18:06;;;;;;;2.20;1.40;;;13.00;73.40;;;;;;5010719;28;20451;-81
2022/04/09 13:20:32;;;;;;;2.37;1.60;;;12.40;74.10;;;;;;5018060;28;20189;-81
2022/04/09 13:22:57;;;;;;;2.63;1.60;;;12.00;75.50;;;;;;5018238;28;20510;-81
2022/04/09 13:25:23;;;;;;;1.73;1.50;;;11.60;76.90;;;;;;5018758;28;20212;-81